sensor_id;sensor_type;location;lat;lon;timestamp;temperature;humidity
76211;DHT22;65003;49.518;11.280;2023-03-31T00:00:50;11.50;88.00
76211;DHT22;65003;49.518;11.280;2023-03-31T00:03:14;11.40;89.10
76211;DHT22;65003;49.518;11.280;2023-03-31T00:05:43;11.30;89.10
76211;DHT22;65003;49.518;11.280;2023-03-31T00:08:10;11.30;89.60
76211;DHT22;65003;49.518;11.280;2023-03-31T00:10:36;11.30;89.50
76211;DHT22;65003;49.518;11.280;2023-03-31T00:13:03;11.30;89.10
76211;DHT22;65003;49.518;11.280;2023-03-31T00:15:30;11.20;88.70
76211;DHT22;65003;49.518;11.280;2023-03-31T00:17:57;11.20;89.30
76211;DHT22;65003;49.518;11.280;2023-03-31T00:20:23;11.20;89.50
76211;DHT22;65003;49.518;11.280;2023-03-31T00:22:51;11.20;89.60
76211;DHT22;65003;49.518;11.280;2023-03-31T00:25:18;11.10;89.80
76211;DHT22;65003;49.518;11.280;2023-03-31T00:27:44;11.10;89.90
76211;DHT22;65003;49.518;11.280;2023-03-31T00:30:12;11.10;90.00
76211;DHT22;65003;49.518;11.280;2023-03-31T00:32:38;11.10;90.40
76211;DHT22;65003;49.518;11.280;2023-03-31T00:35:05;10.90;90.60
76211;DHT22;65003;49.518;11.280;2023-03-31T00:37:33;10.70;91.00
76211;DHT22;65003;49.518;11.280;2023-03-31T00:40:00;10.30;91.70
76211;DHT22;65003;49.518;11.280;2023-03-31T00:42:27;10.20;92.10
76211;DHT22;65003;49.518;11.280;2023-03-31T00:45:23;10.30;92.00
76211;DHT22;65003;49.518;11.280;2023-03-31T00:47:49;10.50;91.60
76211;DHT22;65003;49.518;11.280;2023-03-31T00:50:15;10.60;91.60
76211;DHT22;65003;49.518;11.280;2023-03-31T00:52:41;10.70;91.20
76211;DHT22;65003;49.518;11.280;2023-03-31T00:55:09;10.60;91.20
76211;DHT22;65003;49.518;11.280;2023-03-31T00:57:37;10.70;91.10
76211;DHT22;65003;49.518;11.280;2023-03-31T01:00:08;10.90;90.90
76211;DHT22;65003;49.518;11.280;2023-03-31T01:02:42;10.90;90.80
76211;DHT22;65003;49.518;11.280;2023-03-31T01:05:08;11.00;90.70
76211;DHT22;65003;49.518;11.280;2023-03-31T01:07:41;11.00;90.60
76211;DHT22;65003;49.518;11.280;2023-03-31T01:10:09;11.10;90.50
76211;DHT22;65003;49.518;11.280;2023-03-31T01:12:37;11.10;90.50
76211;DHT22;65003;49.518;11.280;2023-03-31T01:15:03;11.10;90.30
76211;DHT22;65003;49.518;11.280;2023-03-31T01:17:31;11.10;90.30
76211;DHT22;65003;49.518;11.280;2023-03-31T01:20:24;11.10;90.30
76211;DHT22;65003;49.518;11.280;2023-03-31T01:25:54;11.10;90.50
76211;DHT22;65003;49.518;11.280;2023-03-31T01:33:56;10.90;90.50
76211;DHT22;65003;49.518;11.280;2023-03-31T01:36:30;10.80;90.60
76211;DHT22;65003;49.518;11.280;2023-03-31T01:39:13;10.80;90.50
76211;DHT22;65003;49.518;11.280;2023-03-31T01:41:43;10.60;91.00
76211;DHT22;65003;49.518;11.280;2023-03-31T01:44:16;10.50;91.00
76211;DHT22;65003;49.518;11.280;2023-03-31T01:46:57;10.40;91.20
76211;DHT22;65003;49.518;11.280;2023-03-31T01:49:37;10.30;91.40
76211;DHT22;65003;49.518;11.280;2023-03-31T01:52:18;10.40;91.40
76211;DHT22;65003;49.518;11.280;2023-03-31T01:57:21;10.50;91.10
76211;DHT22;65003;49.518;11.280;2023-03-31T01:59:51;10.30;91.30
76211;DHT22;65003;49.518;11.280;2023-03-31T02:02:19;10.20;91.50
76211;DHT22;65003;49.518;11.280;2023-03-31T02:04:50;10.00;91.80
76211;DHT22;65003;49.518;11.280;2023-03-31T02:07:20;9.80;92.10
76211;DHT22;65003;49.518;11.280;2023-03-31T02:09:47;10.00;92.10
76211;DHT22;65003;49.518;11.280;2023-03-31T02:12:14;10.20;91.60
76211;DHT22;65003;49.518;11.280;2023-03-31T02:14:42;10.30;91.20
76211;DHT22;65003;49.518;11.280;2023-03-31T02:17:09;10.40;91.00
76211;DHT22;65003;49.518;11.280;2023-03-31T02:19:36;10.50;90.70
76211;DHT22;65003;49.518;11.280;2023-03-31T02:22:01;9.90;90.30
76211;DHT22;65003;49.518;11.280;2023-03-31T02:24:29;10.60;90.50
76211;DHT22;65003;49.518;11.280;2023-03-31T02:26:59;10.60;90.50
76211;DHT22;65003;49.518;11.280;2023-03-31T02:29:22;10.60;90.50
76211;DHT22;65003;49.518;11.280;2023-03-31T02:32:00;10.70;90.40
76211;DHT22;65003;49.518;11.280;2023-03-31T02:34:24;10.70;90.30
76211;DHT22;65003;49.518;11.280;2023-03-31T02:36:51;10.70;90.20
76211;DHT22;65003;49.518;11.280;2023-03-31T02:39:20;10.70;90.30
76211;DHT22;65003;49.518;11.280;2023-03-31T02:41:46;10.80;90.20
76211;DHT22;65003;49.518;11.280;2023-03-31T02:44:13;10.60;90.30
76211;DHT22;65003;49.518;11.280;2023-03-31T02:46:39;10.60;90.50
76211;DHT22;65003;49.518;11.280;2023-03-31T02:49:08;10.60;90.30
76211;DHT22;65003;49.518;11.280;2023-03-31T02:51:55;10.70;90.20
76211;DHT22;65003;49.518;11.280;2023-03-31T02:54:27;10.80;90.10
76211;DHT22;65003;49.518;11.280;2023-03-31T02:57:04;10.70;89.90
76211;DHT22;65003;49.518;11.280;2023-03-31T03:02:34;10.30;90.20
76211;DHT22;65003;49.518;11.280;2023-03-31T03:05:06;10.20;90.30
76211;DHT22;65003;49.518;11.280;2023-03-31T03:07:33;10.20;90.40
76211;DHT22;65003;49.518;11.280;2023-03-31T03:10:05;10.10;90.40
76211;DHT22;65003;49.518;11.280;2023-03-31T03:12:54;10.10;90.40
76211;DHT22;65003;49.518;11.280;2023-03-31T03:15:23;10.10;90.40
76211;DHT22;65003;49.518;11.280;2023-03-31T03:17:47;10.10;90.30
76211;DHT22;65003;49.518;11.280;2023-03-31T03:20:14;10.10;90.40
76211;DHT22;65003;49.518;11.280;2023-03-31T03:22:40;10.40;90.20
76211;DHT22;65003;49.518;11.280;2023-03-31T03:25:10;10.40;89.80
76211;DHT22;65003;49.518;11.280;2023-03-31T03:27:36;10.30;89.90
76211;DHT22;65003;49.518;11.280;2023-03-31T03:30:04;10.30;90.00
76211;DHT22;65003;49.518;11.280;2023-03-31T03:32:30;10.40;89.40
76211;DHT22;65003;49.518;11.280;2023-03-31T03:34:56;10.40;89.70
76211;DHT22;65003;49.518;11.280;2023-03-31T03:37:23;10.40;89.40
76211;DHT22;65003;49.518;11.280;2023-03-31T03:39:50;10.30;89.40
76211;DHT22;65003;49.518;11.280;2023-03-31T03:42:16;10.30;89.40
76211;DHT22;65003;49.518;11.280;2023-03-31T03:44:43;10.30;89.30
76211;DHT22;65003;49.518;11.280;2023-03-31T03:47:09;10.30;89.10
76211;DHT22;65003;49.518;11.280;2023-03-31T03:49:37;10.30;89.20
76211;DHT22;65003;49.518;11.280;2023-03-31T03:52:04;10.30;89.20
76211;DHT22;65003;49.518;11.280;2023-03-31T03:54:31;10.40;89.10
76211;DHT22;65003;49.518;11.280;2023-03-31T03:56:58;10.40;88.50
76211;DHT22;65003;49.518;11.280;2023-03-31T03:59:24;10.50;88.30
76211;DHT22;65003;49.518;11.280;2023-03-31T04:01:51;10.50;88.80
76211;DHT22;65003;49.518;11.280;2023-03-31T04:04:18;10.50;88.00
76211;DHT22;65003;49.518;11.280;2023-03-31T04:06:45;10.50;88.00
76211;DHT22;65003;49.518;11.280;2023-03-31T04:09:14;10.50;88.20
76211;DHT22;65003;49.518;11.280;2023-03-31T04:11:40;10.50;87.90
76211;DHT22;65003;49.518;11.280;2023-03-31T04:14:10;10.50;88.50
76211;DHT22;65003;49.518;11.280;2023-03-31T04:16:36;10.50;88.70
76211;DHT22;65003;49.518;11.280;2023-03-31T04:19:03;10.50;88.70
76211;DHT22;65003;49.518;11.280;2023-03-31T04:21:31;10.50;88.80
76211;DHT22;65003;49.518;11.280;2023-03-31T04:23:58;10.40;89.70
76211;DHT22;65003;49.518;11.280;2023-03-31T04:26:25;10.50;90.00
76211;DHT22;65003;49.518;11.280;2023-03-31T04:28:51;10.40;90.00
76211;DHT22;65003;49.518;11.280;2023-03-31T04:31:18;10.40;90.00
76211;DHT22;65003;49.518;11.280;2023-03-31T04:33:45;10.40;90.30
76211;DHT22;65003;49.518;11.280;2023-03-31T04:36:13;10.40;90.30
76211;DHT22;65003;49.518;11.280;2023-03-31T04:38:43;10.40;90.30
76211;DHT22;65003;49.518;11.280;2023-03-31T04:41:09;10.30;90.80
76211;DHT22;65003;49.518;11.280;2023-03-31T04:43:35;10.30;91.10
76211;DHT22;65003;49.518;11.280;2023-03-31T04:46:02;10.30;91.00
76211;DHT22;65003;49.518;11.280;2023-03-31T04:48:29;10.20;91.40
76211;DHT22;65003;49.518;11.280;2023-03-31T04:50:56;10.20;91.90
76211;DHT22;65003;49.518;11.280;2023-03-31T04:53:23;10.10;92.30
76211;DHT22;65003;49.518;11.280;2023-03-31T04:55:50;10.10;92.10
76211;DHT22;65003;49.518;11.280;2023-03-31T04:58:16;10.10;92.30
76211;DHT22;65003;49.518;11.280;2023-03-31T05:00:43;10.20;91.90
76211;DHT22;65003;49.518;11.280;2023-03-31T05:03:10;10.30;91.90
76211;DHT22;65003;49.518;11.280;2023-03-31T05:05:36;10.30;91.90
76211;DHT22;65003;49.518;11.280;2023-03-31T05:08:03;10.40;91.60
76211;DHT22;65003;49.518;11.280;2023-03-31T05:10:30;10.30;91.80
76211;DHT22;65003;49.518;11.280;2023-03-31T05:12:58;10.40;91.80
76211;DHT22;65003;49.518;11.280;2023-03-31T05:15:25;10.50;91.60
76211;DHT22;65003;49.518;11.280;2023-03-31T05:17:56;10.40;91.70
76211;DHT22;65003;49.518;11.280;2023-03-31T05:20:22;10.50;91.70
76211;DHT22;65003;49.518;11.280;2023-03-31T05:22:48;10.70;91.50
76211;DHT22;65003;49.518;11.280;2023-03-31T05:25:15;10.70;91.30
76211;DHT22;65003;49.518;11.280;2023-03-31T05:27:45;10.80;91.20
76211;DHT22;65003;49.518;11.280;2023-03-31T05:30:13;10.70;91.40
76211;DHT22;65003;49.518;11.280;2023-03-31T05:32:39;10.70;91.50
76211;DHT22;65003;49.518;11.280;2023-03-31T05:35:06;10.70;91.40
76211;DHT22;65003;49.518;11.280;2023-03-31T05:37:33;10.80;91.20
76211;DHT22;65003;49.518;11.280;2023-03-31T05:39:59;10.90;91.00
76211;DHT22;65003;49.518;11.280;2023-03-31T05:42:26;11.00;90.70
76211;DHT22;65003;49.518;11.280;2023-03-31T05:44:54;11.10;90.50
76211;DHT22;65003;49.518;11.280;2023-03-31T05:47:20;11.20;90.10
76211;DHT22;65003;49.518;11.280;2023-03-31T05:49:48;11.10;90.20
76211;DHT22;65003;49.518;11.280;2023-03-31T05:52:15;11.10;90.10
76211;DHT22;65003;49.518;11.280;2023-03-31T05:54:41;11.30;90.00
76211;DHT22;65003;49.518;11.280;2023-03-31T05:57:08;11.40;89.90
76211;DHT22;65003;49.518;11.280;2023-03-31T05:59:34;11.50;89.70
76211;DHT22;65003;49.518;11.280;2023-03-31T06:02:01;11.40;89.90
76211;DHT22;65003;49.518;11.280;2023-03-31T06:04:28;11.40;90.00
76211;DHT22;65003;49.518;11.280;2023-03-31T06:06:54;11.50;89.80
76211;DHT22;65003;49.518;11.280;2023-03-31T06:09:21;11.60;89.30
76211;DHT22;65003;49.518;11.280;2023-03-31T06:11:48;11.60;89.10
76211;DHT22;65003;49.518;11.280;2023-03-31T06:14:14;11.60;89.30
76211;DHT22;65003;49.518;11.280;2023-03-31T06:16:41;11.60;89.90
76211;DHT22;65003;49.518;11.280;2023-03-31T06:19:08;11.40;90.00
76211;DHT22;65003;49.518;11.280;2023-03-31T06:21:34;11.50;89.10
76211;DHT22;65003;49.518;11.280;2023-03-31T06:24:01;11.60;88.80
76211;DHT22;65003;49.518;11.280;2023-03-31T06:26:27;11.70;88.40
76211;DHT22;65003;49.518;11.280;2023-03-31T06:28:56;11.60;89.30
76211;DHT22;65003;49.518;11.280;2023-03-31T06:31:23;11.40;89.40
76211;DHT22;65003;49.518;11.280;2023-03-31T06:33:50;11.30;89.90
76211;DHT22;65003;49.518;11.280;2023-03-31T06:36:17;11.30;90.10
76211;DHT22;65003;49.518;11.280;2023-03-31T06:38:43;11.40;89.90
76211;DHT22;65003;49.518;11.280;2023-03-31T06:41:11;11.50;89.60
76211;DHT22;65003;49.518;11.280;2023-03-31T06:43:37;11.60;89.10
76211;DHT22;65003;49.518;11.280;2023-03-31T06:46:05;11.70;88.80
76211;DHT22;65003;49.518;11.280;2023-03-31T06:48:32;11.70;89.00
76211;DHT22;65003;49.518;11.280;2023-03-31T06:50:59;11.70;87.40
76211;DHT22;65003;49.518;11.280;2023-03-31T06:53:25;11.60;88.60
76211;DHT22;65003;49.518;11.280;2023-03-31T06:55:52;11.40;89.60
76211;DHT22;65003;49.518;11.280;2023-03-31T06:58:20;11.50;89.60
76211;DHT22;65003;49.518;11.280;2023-03-31T07:00:47;11.30;89.60
76211;DHT22;65003;49.518;11.280;2023-03-31T07:03:14;11.20;90.00
76211;DHT22;65003;49.518;11.280;2023-03-31T07:05:40;11.20;90.20
76211;DHT22;65003;49.518;11.280;2023-03-31T07:08:07;11.20;90.30
76211;DHT22;65003;49.518;11.280;2023-03-31T07:10:33;11.20;90.50
76211;DHT22;65003;49.518;11.280;2023-03-31T07:13:00;11.20;90.50
76211;DHT22;65003;49.518;11.280;2023-03-31T07:15:26;11.10;90.90
76211;DHT22;65003;49.518;11.280;2023-03-31T07:17:55;11.10;91.00
76211;DHT22;65003;49.518;11.280;2023-03-31T07:20:20;11.20;90.80
76211;DHT22;65003;49.518;11.280;2023-03-31T07:22:47;11.30;90.70
76211;DHT22;65003;49.518;11.280;2023-03-31T07:25:16;11.30;90.60
76211;DHT22;65003;49.518;11.280;2023-03-31T07:27:40;11.30;91.00
76211;DHT22;65003;49.518;11.280;2023-03-31T07:30:08;11.30;91.10
76211;DHT22;65003;49.518;11.280;2023-03-31T07:32:34;11.30;91.20
76211;DHT22;65003;49.518;11.280;2023-03-31T07:35:01;11.40;91.00
76211;DHT22;65003;49.518;11.280;2023-03-31T07:37:27;11.40;91.20
76211;DHT22;65003;49.518;11.280;2023-03-31T07:39:54;11.50;90.90
76211;DHT22;65003;49.518;11.280;2023-03-31T07:42:20;11.40;91.00
76211;DHT22;65003;49.518;11.280;2023-03-31T07:44:47;11.40;91.00
76211;DHT22;65003;49.518;11.280;2023-03-31T07:47:14;11.30;91.30
76211;DHT22;65003;49.518;11.280;2023-03-31T07:49:40;11.30;91.50
76211;DHT22;65003;49.518;11.280;2023-03-31T07:52:07;11.40;91.40
76211;DHT22;65003;49.518;11.280;2023-03-31T07:54:33;11.40;91.60
76211;DHT22;65003;49.518;11.280;2023-03-31T07:57:00;11.40;91.60
76211;DHT22;65003;49.518;11.280;2023-03-31T07:59:27;11.40;91.80
76211;DHT22;65003;49.518;11.280;2023-03-31T08:01:54;11.60;91.50
76211;DHT22;65003;49.518;11.280;2023-03-31T08:04:21;11.80;91.10
76211;DHT22;65003;49.518;11.280;2023-03-31T08:06:47;11.80;91.00
76211;DHT22;65003;49.518;11.280;2023-03-31T08:09:15;11.80;90.90
76211;DHT22;65003;49.518;11.280;2023-03-31T08:11:41;11.90;91.00
76211;DHT22;65003;49.518;11.280;2023-03-31T08:14:08;11.80;91.00
76211;DHT22;65003;49.518;11.280;2023-03-31T08:16:34;11.80;91.20
76211;DHT22;65003;49.518;11.280;2023-03-31T08:19:01;11.60;91.50
76211;DHT22;65003;49.518;11.280;2023-03-31T08:21:28;11.50;91.80
76211;DHT22;65003;49.518;11.280;2023-03-31T08:23:54;11.50;92.00
76211;DHT22;65003;49.518;11.280;2023-03-31T08:26:22;11.30;92.20
76211;DHT22;65003;49.518;11.280;2023-03-31T08:28:48;11.30;92.60
76211;DHT22;65003;49.518;11.280;2023-03-31T08:31:15;11.20;92.80
76211;DHT22;65003;49.518;11.280;2023-03-31T08:33:41;11.10;93.00
76211;DHT22;65003;49.518;11.280;2023-03-31T08:36:08;11.00;93.10
76211;DHT22;65003;49.518;11.280;2023-03-31T08:38:36;10.90;93.40
76211;DHT22;65003;49.518;11.280;2023-03-31T08:41:04;10.90;93.70
76211;DHT22;65003;49.518;11.280;2023-03-31T08:43:33;10.90;93.90
76211;DHT22;65003;49.518;11.280;2023-03-31T08:45:59;10.90;93.90
76211;DHT22;65003;49.518;11.280;2023-03-31T08:48:28;10.90;94.10
76211;DHT22;65003;49.518;11.280;2023-03-31T08:51:03;11.00;94.10
76211;DHT22;65003;49.518;11.280;2023-03-31T08:53:35;11.10;93.70
76211;DHT22;65003;49.518;11.280;2023-03-31T08:56:02;11.20;93.60
76211;DHT22;65003;49.518;11.280;2023-03-31T08:58:48;11.20;93.70
76211;DHT22;65003;49.518;11.280;2023-03-31T09:01:35;11.20;93.10
76211;DHT22;65003;49.518;11.280;2023-03-31T09:04:13;11.00;93.60
76211;DHT22;65003;49.518;11.280;2023-03-31T09:06:40;11.00;93.90
76211;DHT22;65003;49.518;11.280;2023-03-31T09:09:05;11.20;93.50
76211;DHT22;65003;49.518;11.280;2023-03-31T09:11:35;11.30;93.10
76211;DHT22;65003;49.518;11.280;2023-03-31T09:14:13;11.50;93.30
76211;DHT22;65003;49.518;11.280;2023-03-31T09:16:45;11.60;92.80
76211;DHT22;65003;49.518;11.280;2023-03-31T09:19:13;11.80;92.70
76211;DHT22;65003;49.518;11.280;2023-03-31T09:21:39;11.80;92.70
76211;DHT22;65003;49.518;11.280;2023-03-31T09:24:13;11.90;92.60
76211;DHT22;65003;49.518;11.280;2023-03-31T09:26:44;11.90;92.50
76211;DHT22;65003;49.518;11.280;2023-03-31T09:29:14;11.90;92.70
76211;DHT22;65003;49.518;11.280;2023-03-31T09:31:40;11.90;92.80
76211;DHT22;65003;49.518;11.280;2023-03-31T09:34:09;12.10;92.30
76211;DHT22;65003;49.518;11.280;2023-03-31T09:36:32;12.10;92.10
76211;DHT22;65003;49.518;11.280;2023-03-31T09:38:59;12.10;91.70
76211;DHT22;65003;49.518;11.280;2023-03-31T09:41:25;12.00;92.00
76211;DHT22;65003;49.518;11.280;2023-03-31T09:43:52;12.10;92.00
76211;DHT22;65003;49.518;11.280;2023-03-31T09:46:23;12.30;92.00
76211;DHT22;65003;49.518;11.280;2023-03-31T09:48:51;12.40;91.40
76211;DHT22;65003;49.518;11.280;2023-03-31T09:51:17;12.50;91.50
76211;DHT22;65003;49.518;11.280;2023-03-31T09:53:44;12.70;91.10
76211;DHT22;65003;49.518;11.280;2023-03-31T09:56:09;12.70;91.60
76211;DHT22;65003;49.518;11.280;2023-03-31T09:58:40;12.60;91.30
76211;DHT22;65003;49.518;11.280;2023-03-31T10:01:06;12.80;91.60
76211;DHT22;65003;49.518;11.280;2023-03-31T10:03:40;13.90;89.00
76211;DHT22;65003;49.518;11.280;2023-03-31T10:06:01;15.80;84.50
76211;DHT22;65003;49.518;11.280;2023-03-31T10:08:30;18.10;72.60
76211;DHT22;65003;49.518;11.280;2023-03-31T10:11:07;20.30;65.40
76211;DHT22;65003;49.518;11.280;2023-03-31T10:13:35;22.80;57.70
76211;DHT22;65003;49.518;11.280;2023-03-31T10:16:02;24.80;47.70
76211;DHT22;65003;49.518;11.280;2023-03-31T10:18:34;24.90;47.90
76211;DHT22;65003;49.518;11.280;2023-03-31T10:21:00;25.50;45.00
76211;DHT22;65003;49.518;11.280;2023-03-31T10:23:27;24.30;47.70
76211;DHT22;65003;49.518;11.280;2023-03-31T10:25:52;25.00;46.80
76211;DHT22;65003;49.518;11.280;2023-03-31T10:28:19;24.50;46.30
76211;DHT22;65003;49.518;11.280;2023-03-31T10:30:50;22.40;50.50
76211;DHT22;65003;49.518;11.280;2023-03-31T10:33:16;20.30;56.50
76211;DHT22;65003;49.518;11.280;2023-03-31T10:35:42;18.40;62.70
76211;DHT22;65003;49.518;11.280;2023-03-31T10:38:13;17.00;68.70
76211;DHT22;65003;49.518;11.280;2023-03-31T10:40:39;16.20;73.50
76211;DHT22;65003;49.518;11.280;2023-03-31T10:43:15;15.60;76.40
76211;DHT22;65003;49.518;11.280;2023-03-31T10:45:47;15.20;79.30
76211;DHT22;65003;49.518;11.280;2023-03-31T10:48:23;15.00;81.20
76211;DHT22;65003;49.518;11.280;2023-03-31T10:50:46;15.00;80.80
76211;DHT22;65003;49.518;11.280;2023-03-31T10:53:13;14.90;82.00
76211;DHT22;65003;49.518;11.280;2023-03-31T10:55:41;14.90;81.30
76211;DHT22;65003;49.518;11.280;2023-03-31T10:58:11;14.90;80.90
76211;DHT22;65003;49.518;11.280;2023-03-31T11:03:22;15.10;78.90
76211;DHT22;65003;49.518;11.280;2023-03-31T11:05:51;16.30;76.40
76211;DHT22;65003;49.518;11.280;2023-03-31T11:08:29;18.50;66.60
76211;DHT22;65003;49.518;11.280;2023-03-31T11:11:15;20.60;58.60
76211;DHT22;65003;49.518;11.280;2023-03-31T11:13:43;20.50;56.40
76211;DHT22;65003;49.518;11.280;2023-03-31T11:16:17;19.80;56.50
76211;DHT22;65003;49.518;11.280;2023-03-31T11:19:10;19.20;56.60
76211;DHT22;65003;49.518;11.280;2023-03-31T11:21:43;19.00;57.00
76211;DHT22;65003;49.518;11.280;2023-03-31T11:24:27;18.50;57.50
76211;DHT22;65003;49.518;11.280;2023-03-31T11:26:58;17.50;60.70
76211;DHT22;65003;49.518;11.280;2023-03-31T11:29:29;16.70;62.60
76211;DHT22;65003;49.518;11.280;2023-03-31T11:35:18;16.70;67.20
76211;DHT22;65003;49.518;11.280;2023-03-31T11:38:12;17.00;63.30
76211;DHT22;65003;49.518;11.280;2023-03-31T11:40:51;17.00;64.30
76211;DHT22;65003;49.518;11.280;2023-03-31T11:43:18;17.10;62.00
76211;DHT22;65003;49.518;11.280;2023-03-31T11:45:52;17.30;61.50
76211;DHT22;65003;49.518;11.280;2023-03-31T11:48:32;16.90;59.40
76211;DHT22;65003;49.518;11.280;2023-03-31T11:50:59;16.70;61.80
76211;DHT22;65003;49.518;11.280;2023-03-31T11:53:28;16.50;59.50
76211;DHT22;65003;49.518;11.280;2023-03-31T11:55:53;16.20;59.00
76211;DHT22;65003;49.518;11.280;2023-03-31T11:58:22;16.00;60.10
76211;DHT22;65003;49.518;11.280;2023-03-31T12:00:51;15.70;59.60
76211;DHT22;65003;49.518;11.280;2023-03-31T12:03:41;15.50;61.60
76211;DHT22;65003;49.518;11.280;2023-03-31T12:06:11;15.50;62.70
76211;DHT22;65003;49.518;11.280;2023-03-31T12:08:49;15.10;70.90
76211;DHT22;65003;49.518;11.280;2023-03-31T12:11:15;14.60;73.60
76211;DHT22;65003;49.518;11.280;2023-03-31T12:13:51;14.20;76.60
76211;DHT22;65003;49.518;11.280;2023-03-31T12:16:21;13.80;78.80
76211;DHT22;65003;49.518;11.280;2023-03-31T12:19:24;13.60;80.80
76211;DHT22;65003;49.518;11.280;2023-03-31T12:21:30;13.30;80.50
76211;DHT22;65003;49.518;11.280;2023-03-31T12:23:57;13.00;80.90
76211;DHT22;65003;49.518;11.280;2023-03-31T12:26:40;13.00;80.00
76211;DHT22;65003;49.518;11.280;2023-03-31T12:29:13;13.20;79.70
76211;DHT22;65003;49.518;11.280;2023-03-31T12:31:33;13.50;78.80
76211;DHT22;65003;49.518;11.280;2023-03-31T12:34:01;13.50;77.00
76211;DHT22;65003;49.518;11.280;2023-03-31T12:36:50;13.50;77.70
76211;DHT22;65003;49.518;11.280;2023-03-31T12:45:01;14.00;75.20
76211;DHT22;65003;49.518;11.280;2023-03-31T12:47:31;14.10;74.20
76211;DHT22;65003;49.518;11.280;2023-03-31T12:50:08;14.30;74.00
76211;DHT22;65003;49.518;11.280;2023-03-31T12:52:54;14.50;73.60
76211;DHT22;65003;49.518;11.280;2023-03-31T12:55:36;14.40;72.20
76211;DHT22;65003;49.518;11.280;2023-03-31T12:58:40;14.10;73.60
76211;DHT22;65003;49.518;11.280;2023-03-31T13:01:02;13.80;74.30
76211;DHT22;65003;49.518;11.280;2023-03-31T13:04:20;13.80;76.30
76211;DHT22;65003;49.518;11.280;2023-03-31T13:06:45;13.90;74.70
76211;DHT22;65003;49.518;11.280;2023-03-31T13:09:45;14.10;73.90
76211;DHT22;65003;49.518;11.280;2023-03-31T13:12:22;14.40;74.10
76211;DHT22;65003;49.518;11.280;2023-03-31T13:14:49;14.60;73.00
76211;DHT22;65003;49.518;11.280;2023-03-31T13:17:24;14.60;71.80
76211;DHT22;65003;49.518;11.280;2023-03-31T13:19:50;14.40;72.50
76211;DHT22;65003;49.518;11.280;2023-03-31T13:22:29;13.80;76.20
76211;DHT22;65003;49.518;11.280;2023-03-31T13:25:23;13.10;81.20
76211;DHT22;65003;49.518;11.280;2023-03-31T13:27:28;12.70;84.80
76211;DHT22;65003;49.518;11.280;2023-03-31T13:29:49;12.30;87.20
76211;DHT22;65003;49.518;11.280;2023-03-31T13:32:18;12.10;88.80
76211;DHT22;65003;49.518;11.280;2023-03-31T13:34:48;11.90;90.00
76211;DHT22;65003;49.518;11.280;2023-03-31T13:37:27;11.80;87.90
76211;DHT22;65003;49.518;11.280;2023-03-31T13:40:06;11.90;89.10
76211;DHT22;65003;49.518;11.280;2023-03-31T13:48:29;13.10;85.40
76211;DHT22;65003;49.518;11.280;2023-03-31T13:51:06;13.20;83.80
76211;DHT22;65003;49.518;11.280;2023-03-31T13:53:35;13.40;85.10
76211;DHT22;65003;49.518;11.280;2023-03-31T13:56:18;13.70;82.60
76211;DHT22;65003;49.518;11.280;2023-03-31T13:59:04;13.90;83.70
76211;DHT22;65003;49.518;11.280;2023-03-31T14:01:50;14.10;81.70
76211;DHT22;65003;49.518;11.280;2023-03-31T14:06:56;14.10;81.30
76211;DHT22;65003;49.518;11.280;2023-03-31T14:09:28;13.90;80.30
76211;DHT22;65003;49.518;11.280;2023-03-31T14:11:53;13.70;82.00
76211;DHT22;65003;49.518;11.280;2023-03-31T14:14:20;13.60;82.70
76211;DHT22;65003;49.518;11.280;2023-03-31T14:16:49;13.60;82.40
76211;DHT22;65003;49.518;11.280;2023-03-31T14:19:53;13.60;83.50
76211;DHT22;65003;49.518;11.280;2023-03-31T14:22:06;13.60;83.70
76211;DHT22;65003;49.518;11.280;2023-03-31T14:28:41;13.80;79.80
76211;DHT22;65003;49.518;11.280;2023-03-31T14:32:54;13.50;80.50
76211;DHT22;65003;49.518;11.280;2023-03-31T14:35:24;13.60;81.40
76211;DHT22;65003;49.518;11.280;2023-03-31T14:37:50;13.60;80.40
76211;DHT22;65003;49.518;11.280;2023-03-31T14:40:17;13.60;81.80
76211;DHT22;65003;49.518;11.280;2023-03-31T14:42:43;13.70;81.00
76211;DHT22;65003;49.518;11.280;2023-03-31T14:45:17;13.70;80.90
76211;DHT22;65003;49.518;11.280;2023-03-31T14:47:41;13.80;81.10
76211;DHT22;65003;49.518;11.280;2023-03-31T14:50:15;13.90;80.60
76211;DHT22;65003;49.518;11.280;2023-03-31T14:52:40;14.00;80.00
76211;DHT22;65003;49.518;11.280;2023-03-31T14:55:12;13.90;79.20
76211;DHT22;65003;49.518;11.280;2023-03-31T14:57:34;13.90;78.80
76211;DHT22;65003;49.518;11.280;2023-03-31T15:00:00;13.70;78.00
76211;DHT22;65003;49.518;11.280;2023-03-31T15:02:30;13.60;80.10
76211;DHT22;65003;49.518;11.280;2023-03-31T15:04:55;13.50;80.80
76211;DHT22;65003;49.518;11.280;2023-03-31T15:07:22;13.50;78.60
76211;DHT22;65003;49.518;11.280;2023-03-31T15:09:49;13.60;79.10
76211;DHT22;65003;49.518;11.280;2023-03-31T15:12:16;13.60;78.60
76211;DHT22;65003;49.518;11.280;2023-03-31T15:14:44;13.60;75.60
76211;DHT22;65003;49.518;11.280;2023-03-31T15:17:22;13.50;77.30
76211;DHT22;65003;49.518;11.280;2023-03-31T15:19:54;13.40;76.00
76211;DHT22;65003;49.518;11.280;2023-03-31T15:22:20;13.30;76.30
76211;DHT22;65003;49.518;11.280;2023-03-31T15:24:46;13.30;75.70
76211;DHT22;65003;49.518;11.280;2023-03-31T15:27:17;13.40;74.40
76211;DHT22;65003;49.518;11.280;2023-03-31T15:29:44;13.40;74.60
76211;DHT22;65003;49.518;11.280;2023-03-31T15:32:13;13.50;74.50
76211;DHT22;65003;49.518;11.280;2023-03-31T15:34:39;13.50;73.30
76211;DHT22;65003;49.518;11.280;2023-03-31T15:37:05;13.50;74.60
76211;DHT22;65003;49.518;11.280;2023-03-31T15:39:32;13.40;73.80
76211;DHT22;65003;49.518;11.280;2023-03-31T15:42:01;13.40;73.30
76211;DHT22;65003;49.518;11.280;2023-03-31T15:44:38;13.30;72.30
76211;DHT22;65003;49.518;11.280;2023-03-31T15:47:11;13.30;74.10
76211;DHT22;65003;49.518;11.280;2023-03-31T15:49:33;13.30;74.50
76211;DHT22;65003;49.518;11.280;2023-03-31T15:52:00;13.30;73.80
76211;DHT22;65003;49.518;11.280;2023-03-31T15:54:31;13.40;73.00
76211;DHT22;65003;49.518;11.280;2023-03-31T15:56:58;13.40;72.10
76211;DHT22;65003;49.518;11.280;2023-03-31T15:59:23;13.40;72.30
76211;DHT22;65003;49.518;11.280;2023-03-31T16:01:49;13.40;73.10
76211;DHT22;65003;49.518;11.280;2023-03-31T16:04:16;13.50;73.20
76211;DHT22;65003;49.518;11.280;2023-03-31T16:06:44;13.50;72.10
76211;DHT22;65003;49.518;11.280;2023-03-31T16:09:13;13.50;71.90